Snow/Ice From: 16-12-2017 16:00 Until: 17-12-2017 16:00 warning for: Snow/Ice Level: Yellow info button

Although rather usual in this region, locally or potentially dangerous phenomena are expected. (such as local winds, summer thunderstorms, rising streams or high waves) Be aware and pay attention to the latest weather updates, especially if you carry out activities exposed to weather or close to a stream or shoreline. 


Meteo18 Weather Cam more information Meteo18 Weather Cam


Thunder radar more information blitzortung!


warning for Snow/Ice more information rain snow radar


Visit our other weather sites:

Template documentation
and downloads

And another site



Weather Underground History page Text

Daily Summary for March 2, 2017 Units:  English    Metric   Both
« Previous Day
Next Day »
Daily Weekly Monthly Yearly Custom
  High: Low: Average:
Temperature: 50.7 °F 41.4 °F 46.2 °F
Dew Point: 48 °F 33.3 °F 39.4 °F
Humidity: 95 % 53 % 78 %
Wind Speed: 16 mph 0 mph 3.1 mph
Wind Gust: 24 mph - -
Wind:- - WSW
Pressure: 30.2 in 29.9 in -
Precipitation: 0.12 in    
Historical Graphs
 
 
Tabular Data for March 2, 2017
Time Temperature Dew Point Pressure Wind Wind Speed Wind Gust Humidity Rainfall Rate (Hourly)
00:02 49.6 °F 48 °F 29.9 in SW 8 mph 22 mph 94 % 0.03 in
00:12 49.6 °F 48 °F 29.9 in West 11 mph 20 mph 94 % 0.02 in
00:17 49.6 °F 48 °F 29.9 in WSW 11 mph 20 mph 94 % 0.02 in
00:22 49.6 °F 48 °F 29.9 in West 10 mph 20 mph 94 % 0.02 in
00:27 49.6 °F 48 °F 29.9 in SW 8 mph 20 mph 94 % 0.01 in
00:32 49.6 °F 48 °F 29.9 in WSW 14 mph 20 mph 94 % 0.01 in
00:37 49.6 °F 48 °F 29.9 in WSW 11 mph 20 mph 94 % 0.01 in
00:42 49.6 °F 48 °F 29.9 in SW 8 mph 20 mph 94 % 0.02 in
00:47 49.5 °F 47.8 °F 29.9 in WSW 7 mph 20 mph 94 % 0.02 in
00:52 49.5 °F 47.8 °F 29.9 in West 7 mph 19 mph 94 % 0.02 in
00:57 49.5 °F 48 °F 29.9 in SW 16 mph 19 mph 95 % 0.02 in
01:02 49.5 °F 48 °F 29.9 in WSW 9 mph 18 mph 95 % 0.03 in
01:07 49.5 °F 48 °F 29.9 in WSW 15 mph 18 mph 95 % 0.03 in
01:12 49.5 °F 48 °F 29.9 in WNW 13 mph 18 mph 95 % 0.05 in
01:17 49.3 °F 47.8 °F 29.9 in West 16 mph 18 mph 95 % 0.08 in
01:22 48.9 °F 46.9 °F 29.9 in SW 11 mph 24 mph 93 % 0.1 in
01:27 48.7 °F 46.6 °F 29.9 in West 12 mph 24 mph 92 % 0.1 in
01:32 48.7 °F 45.9 °F 29.9 in West 7 mph 24 mph 90 % 0.1 in
01:37 48.7 °F 46.2 °F 29.9 in West 14 mph 20 mph 91 % 0.1 in
01:42 48.6 °F 46 °F 29.9 in SW 7 mph 19 mph 91 % 0.09 in
01:47 48.4 °F 46.2 °F 29.9 in West 7 mph 18 mph 92 % 0.09 in
01:52 48.4 °F 46.2 °F 29.9 in WNW 9 mph 15 mph 92 % 0.09 in
01:57 48.4 °F 46.2 °F 29.9 in WNW 11 mph 14 mph 92 % 0.09 in
02:02 48 °F 45.5 °F 29.9 in WNW 10 mph 17 mph 91 % 0.09 in
02:07 48 °F 45.5 °F 29.9 in WNW 6 mph 17 mph 91 % 0.09 in
02:12 47.8 °F 45.3 °F 29.9 in West 5 mph 17 mph 91 % 0.07 in
02:17 47.8 °F 44.4 °F 29.9 in WNW 12 mph 19 mph 88 % 0.02 in
02:22 47.7 °F 44.2 °F 29.9 in ENE 1 mph 19 mph 88 % 0.02 in
02:27 47.7 °F 44.1 °F 29.9 in NW 2 mph 19 mph 87 % 0.01 in
02:32 47.5 °F 43.9 °F 29.9 in NW 5 mph 15 mph 87 % 0.01 in
02:37 47.5 °F 44.1 °F 29.9 in WNW 2 mph 12 mph 88 % 0.01 in
02:42 47.3 °F 43.9 °F 29.9 in WSW 2 mph 11 mph 88 % 0.01 in
02:47 47.3 °F 44.2 °F 29.9 in West 5 mph 9 mph 89 % 0.01 in
02:52 47.3 °F 43.9 °F 29.9 in WNW 8 mph 9 mph 88 % 0 in
02:57 47.1 °F 43.7 °F 30 in NW 3 mph 10 mph 88 % 0 in
03:02 46.9 °F 43.5 °F 30 in WNW 1 mph 10 mph 88 % 0 in
03:07 46.8 °F 43.3 °F 30 in West 6 mph 10 mph 88 % 0 in
03:12 46.8 °F 43.2 °F 30 in West 4 mph 10 mph 87 % 0 in
03:17 46.6 °F 43 °F 30 in NNW 3 mph 10 mph 87 % 0 in
03:22 46.2 °F 42.6 °F 30 in WSW 5 mph 11 mph 87 % 0 in
03:27 46 °F 42.4 °F 30 in WNW 4 mph 11 mph 87 % 0 in
03:32 45.9 °F 42.4 °F 30 in WNW 5 mph 11 mph 88 % 0 in
03:37 45.7 °F 42.3 °F 30 in WSW 3 mph 8 mph 88 % 0 in
03:42 45.5 °F 42.1 °F 30 in WSW 3 mph 8 mph 88 % 0 in
03:52 45.1 °F 42.1 °F 30 in WSW 4 mph 6 mph 89 % 0 in
03:57 44.8 °F 42.1 °F 30 in WSW 4 mph 8 mph 90 % 0 in
04:02 44.6 °F 41.9 °F 30 in West 4 mph 8 mph 90 % 0 in
04:07 44.4 °F 41.9 °F 30 in WSW 6 mph 8 mph 91 % 0 in
04:12 44.2 °F 41.7 °F 30 in West 6 mph 8 mph 91 % 0 in
04:17 44.2 °F 42.1 °F 30 in WSW 4 mph 8 mph 92 % 0 in
04:22 44.1 °F 41.9 °F 30 in West 2 mph 8 mph 92 % 0 in
04:27 44.1 °F 41.9 °F 30 in WSW 5 mph 7 mph 92 % 0 in
04:32 43.9 °F 41.7 °F 30 in WSW 4 mph 8 mph 92 % 0 in
04:37 43.9 °F 41.7 °F 30 in WSW 3 mph 8 mph 92 % 0 in
04:42 43.7 °F 41.5 °F 30 in West 2 mph 8 mph 92 % 0 in
04:52 43.5 °F 41.7 °F 30 in West 3 mph 8 mph 93 % 0 in
04:57 43.3 °F 41.5 °F 30 in West 4 mph 8 mph 93 % 0 in
05:02 43.3 °F 41.5 °F 30 in WNW 2 mph 8 mph 93 % 0 in
05:12 43.2 °F 41.4 °F 30 in West 2 mph 7 mph 93 % 0 in
05:17 43 °F 41.2 °F 30 in West 3 mph 7 mph 93 % 0 in
05:22 43 °F 41.2 °F 30 in WSW 4 mph 6 mph 93 % 0 in
05:27 43 °F 41.2 °F 30 in WSW 1 mph 5 mph 93 % 0 in
05:32 43 °F 41.2 °F 30 in WSW 1 mph 5 mph 93 % 0 in
05:37 43 °F 41.2 °F 30 in WSW 2 mph 5 mph 93 % 0 in
05:42 43 °F 41.2 °F 30 in Calm   4 mph 93 % 0 in
05:52 43 °F 41.2 °F 30 in WSW 1 mph 4 mph 93 % 0 in
05:57 43.2 °F 41.4 °F 30 in West 2 mph 4 mph 93 % 0 in
06:02 43.2 °F 41 °F 30 in West 5 mph 5 mph 92 % 0 in
06:07 43 °F 40.8 °F 30 in West 4 mph 6 mph 92 % 0 in
06:12 43 °F 40.5 °F 30 in West 3 mph 8 mph 91 % 0 in
06:17 42.8 °F 40.3 °F 30 in West 3 mph 8 mph 91 % 0 in
06:22 42.6 °F 40.1 °F 30 in West 5 mph 5 mph 91 % 0 in
06:27 42.6 °F 40.1 °F 30 in WSW 4 mph 6 mph 91 % 0 in
06:32 42.4 °F 40.3 °F 30 in West 4 mph 6 mph 92 % 0 in
06:37 42.6 °F 40.5 °F 30 in WNW 4 mph 7 mph 92 % 0 in
06:42 42.6 °F 40.5 °F 30 in West 4 mph 7 mph 92 % 0 in
06:47 42.8 °F 40.6 °F 30 in WNW 7 mph 7 mph 92 % 0 in
06:57 42.8 °F 40.3 °F 30 in WNW 5 mph 9 mph 91 % 0 in
07:02 42.6 °F 40.1 °F 30 in West 5 mph 9 mph 91 % 0 in
07:12 42.3 °F 39.7 °F 30 in West 3 mph 8 mph 91 % 0 in
07:17 42.3 °F 39.7 °F 30 in West 5 mph 8 mph 91 % 0 in
07:22 42.1 °F 39.6 °F 30 in West 4 mph 7 mph 91 % 0 in
07:32 41.7 °F 39.6 °F 30.1 in West 4 mph 10 mph 92 % 0 in
07:37 41.5 °F 39.4 °F 30.1 in West 3 mph 10 mph 92 % 0 in
07:42 41.5 °F 39.4 °F 30.1 in WSW 6 mph 9 mph 92 % 0 in
07:47 41.5 °F 39.4 °F 30.1 in WSW 7 mph 9 mph 92 % 0 in
07:52 41.4 °F 39.2 °F 30.1 in West 4 mph 9 mph 92 % 0 in
07:57 41.4 °F 39.2 °F 30.1 in SW 6 mph 9 mph 92 % 0 in
08:02 41.4 °F 39.2 °F 30.1 in WSW 6 mph 10 mph 92 % 0 in
08:07 41.4 °F 39.2 °F 30.1 in West 5 mph 10 mph 92 % 0 in
08:12 41.4 °F 39.2 °F 30.1 in WSW 5 mph 11 mph 92 % 0 in
08:17 41.4 °F 39.2 °F 30.1 in WNW 3 mph 11 mph 92 % 0 in
08:22 41.4 °F 39.2 °F 30.1 in WNW 5 mph 11 mph 92 % 0 in
08:27 41.4 °F 39.2 °F 30.1 in West 1 mph 7 mph 92 % 0 in
08:32 41.4 °F 39.2 °F 30.1 in Calm   6 mph 92 % 0 in
08:37 41.4 °F 39.2 °F 30.1 in West 3 mph 6 mph 92 % 0 in
08:42 41.5 °F 39.4 °F 30.1 in Calm   5 mph 92 % 0 in
08:52 41.7 °F 39.6 °F 30.1 in Calm   5 mph 92 % 0 in
08:57 42.1 °F 39.9 °F 30.1 in Calm   3 mph 92 % 0 in
09:02 42.3 °F 40.1 °F 30.1 in Calm   3 mph 92 % 0 in
09:12 42.8 °F 40.6 °F 30.1 in SE 1 mph 2 mph 92 % 0 in
09:17 43.2 °F 41 °F 30.1 in Calm   2 mph 92 % 0 in
09:22 43.3 °F 40.8 °F 30.1 in Calm   2 mph 91 % 0 in
09:27 43.7 °F 41.2 °F 30.1 in WSW 1 mph 2 mph 91 % 0 in
09:32 43.7 °F 40.6 °F 30.1 in SSW 3 mph 3 mph 89 % 0 in
09:37 44.1 °F 41 °F 30.1 in West 1 mph 4 mph 89 % 0 in
09:42 44.2 °F 41.2 °F 30.1 in South 1 mph 4 mph 89 % 0 in
09:47 44.2 °F 41.2 °F 30.1 in SW 3 mph 3 mph 89 % 0 in
09:52 44.2 °F 41 °F 30.1 in SW 2 mph 3 mph 88 % 0 in
09:57 44.4 °F 41.4 °F 30.1 in WSW 4 mph 5 mph 89 % 0 in
10:02 44.8 °F 41.7 °F 30.1 in SW 1 mph 5 mph 89 % 0 in
10:07 45 °F 41.4 °F 30.1 in West 2 mph 5 mph 87 % 0 in
10:12 45 °F 41 °F 30.1 in WSW 5 mph 5 mph 86 % 0 in
10:17 45 °F 41 °F 30.1 in West 2 mph 6 mph 86 % 0 in
10:22 45 °F 41 °F 30.1 in WSW 4 mph 6 mph 86 % 0 in
10:32 44.8 °F 40.5 °F 30.1 in Calm   6 mph 85 % 0 in
10:37 45.1 °F 40.8 °F 30.1 in SSW 2 mph 7 mph 85 % 0 in
10:42 45.7 °F 41.4 °F 30.1 in West 2 mph 7 mph 85 % 0 in
10:47 45.9 °F 41 °F 30.1 in West 3 mph 5 mph 83 % 0 in
10:57 46.2 °F 41.4 °F 30.1 in Calm   7 mph 83 % 0 in
11:02 46.6 °F 40.5 °F 30.1 in West 2 mph 7 mph 79 % 0 in
11:07 46.6 °F 40.8 °F 30.1 in West 2 mph 7 mph 80 % 0 in
11:12 46.8 °F 39.6 °F 30.1 in West 2 mph 5 mph 76 % 0 in
11:17 47.3 °F 40.1 °F 30.1 in West 3 mph 5 mph 76 % 0 in
11:22 47.1 °F 38.8 °F 30.2 in West 5 mph 5 mph 73 % 0 in
11:32 46.9 °F 37.6 °F 30.2 in NW 4 mph 10 mph 70 % 0 in
11:37 47.1 °F 37 °F 30.2 in WNW 6 mph 11 mph 68 % 0 in
11:42 47.3 °F 36.9 °F 30.2 in West 1 mph 11 mph 67 % 0 in
11:47 47.3 °F 37.9 °F 30.2 in North 3 mph 10 mph 70 % 0 in
11:52 47.7 °F 36.9 °F 30.2 in NNW 1 mph 8 mph 66 % 0 in
11:57 47.7 °F 37.6 °F 30.2 in West 2 mph 7 mph 68 % 0 in
12:02 47.7 °F 36.5 °F 30.2 in WSW 3 mph 7 mph 65 % 0 in
12:07 47.8 °F 38.1 °F 30.2 in West 1 mph 6 mph 69 % 0 in
12:12 47.8 °F 37.4 °F 30.2 in WSW 2 mph 6 mph 67 % 0 in
12:17 47.8 °F 36.7 °F 30.2 in WSW 2 mph 5 mph 65 % 0 in
12:22 48 °F 37.2 °F 30.2 in West 3 mph 8 mph 66 % 0 in
12:27 48.4 °F 37.6 °F 30.2 in SW 3 mph 8 mph 66 % 0 in
12:32 48.4 °F 35.6 °F 30.2 in WNW 3 mph 6 mph 61 % 0 in
12:37 48.4 °F 36.3 °F 30.2 in WNW 1 mph 6 mph 63 % 0 in
12:42 48.6 °F 36.5 °F 30.1 in NW 1 mph 6 mph 63 % 0 in
12:47 48.7 °F 36.7 °F 30.1 in WSW 2 mph 6 mph 63 % 0 in
12:52 49.3 °F 37.6 °F 30.2 in West 4 mph 6 mph 64 % 0 in
12:57 49.1 °F 37 °F 30.1 in Calm   6 mph 63 % 0 in
13:02 49.8 °F 36.5 °F 30.1 in Calm   6 mph 60 % 0 in
13:07 50.4 °F 37 °F 30.1 in WSW 4 mph 5 mph 60 % 0 in
13:12 50.4 °F 35.2 °F 30.1 in SW 2 mph 6 mph 56 % 0 in
13:22 49.6 °F 33.3 °F 30.1 in WSW 2 mph 7 mph 53 % 0 in
13:32 49.8 °F 33.8 °F 30.1 in West 2 mph 6 mph 54 % 0 in
13:37 49.6 °F 34.5 °F 30.1 in SW 3 mph 5 mph 56 % 0 in
13:42 49.8 °F 38.1 °F 30.1 in SW 6 mph 6 mph 64 % 0 in
13:47 50.2 °F 39.2 °F 30.1 in SSW 1 mph 6 mph 66 % 0 in
13:52 50.2 °F 36.3 °F 30.1 in SW 5 mph 6 mph 59 % 0 in
13:57 50.7 °F 37.4 °F 30.1 in SW 6 mph 8 mph 60 % 0 in
14:02 50.4 °F 35.2 °F 30.1 in SSW 2 mph 9 mph 56 % 0 in
14:07 50.5 °F 36.7 °F 30.1 in SW 3 mph 9 mph 59 % 0 in
14:12 50.4 °F 36.1 °F 30.1 in South 5 mph 11 mph 58 % 0 in
14:17 50.5 °F 37.6 °F 30.1 in SSW 5 mph 11 mph 61 % 0 in
14:22 50.5 °F 36.7 °F 30.1 in SSE 4 mph 11 mph 59 % 0 in
14:27 50.4 °F 37.8 °F 30.1 in SSW 4 mph 11 mph 62 % 0 in
14:32 50.4 °F 37.8 °F 30.1 in SSW 6 mph 11 mph 62 % 0 in
14:37 50.2 °F 38.5 °F 30.1 in SW 5 mph 11 mph 64 % 0 in
14:42 50.2 °F 36.9 °F 30.1 in SW 11 mph 11 mph 60 % 0 in
14:49 50.2 °F 35.6 °F 30.1 in SSW 8 mph 12 mph 57 % 0 in
14:57 50.4 °F 36.1 °F 30.1 in SSW 7 mph 12 mph 58 % 0 in
15:02 50.2 °F 35.6 °F 30.1 in SSW 7 mph 9 mph 57 % 0 in
15:07 50.2 °F 35.6 °F 30.1 in SSW 4 mph 9 mph 57 % 0 in
15:12 50.2 °F 37.6 °F 30.1 in SW 5 mph 9 mph 62 % 0 in
15:17 50.2 °F 36 °F 30.1 in WSW 4 mph 9 mph 58 % 0 in
15:22 50.4 °F 36.1 °F 30.1 in West 2 mph 9 mph 58 % 0 in
15:32 50.4 °F 36.5 °F 30.1 in SW 7 mph 8 mph 59 % 0 in
15:37 50.2 °F 36 °F 30.1 in SW 2 mph 8 mph 58 % 0 in
15:42 50.4 °F 36.5 °F 30.1 in SSW 3 mph 8 mph 59 % 0 in
15:47 50.4 °F 36.1 °F 30.1 in SSW 4 mph 8 mph 58 % 0 in
15:52 50.4 °F 35.2 °F 30.1 in SW 3 mph 7 mph 56 % 0 in
15:57 50.4 °F 35.2 °F 30.1 in SSW 1 mph 10 mph 56 % 0 in
16:02 50.5 °F 35.1 °F 30.1 in South 5 mph 10 mph 55 % 0 in
16:07 50.5 °F 35.4 °F 30.1 in SSW 4 mph 9 mph 56 % 0 in
16:12 50.5 °F 34.5 °F 30.1 in SSW 2 mph 9 mph 54 % 0 in
16:17 50.4 °F 34.3 °F 30.1 in SSW 5 mph 9 mph 54 % 0 in
16:22 50.4 °F 35.8 °F 30.1 in SSW 4 mph 8 mph 57 % 0 in
16:27 50.4 °F 36.5 °F 30.1 in South 5 mph 7 mph 59 % 0 in
16:32 50.2 °F 36.3 °F 30.1 in South 2 mph 8 mph 59 % 0 in
16:37 50 °F 34.9 °F 30.1 in SW 2 mph 8 mph 56 % 0 in
16:42 50 °F 37 °F 30.1 in SSW 1 mph 8 mph 61 % 0 in
16:47 50 °F 36.3 °F 30.1 in South 2 mph 7 mph 59 % 0 in
16:52 50.2 °F 37.2 °F 30.1 in South 2 mph 7 mph 61 % 0 in
16:57 49.8 °F 36.1 °F 30.1 in South 4 mph 7 mph 59 % 0 in
17:02 49.8 °F 36.1 °F 30.1 in SSW 3 mph 7 mph 59 % 0 in
17:07 49.8 °F 36.9 °F 30.1 in SSW 3 mph 7 mph 61 % 0 in
17:12 49.6 °F 34.5 °F 30.1 in SSW 4 mph 7 mph 56 % 0 in
17:17 49.6 °F 35.1 °F 30.1 in SSW 3 mph 7 mph 57 % 0 in
17:22 49.6 °F 35.1 °F 30.1 in SSW 4 mph 6 mph 57 % 0 in
17:32 49.6 °F 37.2 °F 30.1 in SSW 1 mph 5 mph 62 % 0 in
17:42 49.5 °F 36.5 °F 30.1 in SSW 1 mph 5 mph 61 % 0 in
17:47 49.3 °F 37.6 °F 30.1 in Calm   3 mph 64 % 0 in
17:52 49.3 °F 37.2 °F 30.1 in SSW 1 mph 3 mph 63 % 0 in
17:57 49.1 °F 37.4 °F 30.1 in Calm   3 mph 64 % 0 in
18:02 48.9 °F 36.9 °F 30.1 in Calm   1 mph 63 % 0 in
18:07 48.9 °F 37.2 °F 30.1 in Calm   1 mph 64 % 0 in
18:12 48.7 °F 37.6 °F 30.1 in Calm   1 mph 65 % 0 in
18:17 48.6 °F 37.8 °F 30.1 in Calm   1 mph 66 % 0 in
18:22 48.4 °F 38.3 °F 30.1 in Calm     68 % 0 in
18:32 47.8 °F 38.5 °F 30.1 in Calm     70 % 0 in
18:42 47.5 °F 38.5 °F 30.1 in Calm     71 % 0 in
18:47 47.1 °F 37.8 °F 30.1 in Calm     70 % 0 in
18:52 46.9 °F 38.1 °F 30.1 in Calm     71 % 0 in
18:57 46.9 °F 38.1 °F 30.1 in Calm     71 % 0 in
19:02 46.8 °F 37.9 °F 30.1 in Calm     71 % 0 in
19:07 46.8 °F 37.9 °F 30.1 in Calm     71 % 0 in
19:12 46.6 °F 37.8 °F 30.1 in Calm     71 % 0 in
19:17 46.4 °F 37.2 °F 30.1 in Calm     70 % 0 in
19:22 46.2 °F 36.7 °F 30.1 in Calm     69 % 0 in
19:27 46.2 °F 37 °F 30.1 in Calm     70 % 0 in
19:32 46 °F 37.2 °F 30.1 in Calm     71 % 0 in
19:37 45.9 °F 37.4 °F 30.1 in Calm     72 % 0 in
19:42 45.7 °F 36.9 °F 30.1 in Calm     71 % 0 in
19:47 45.3 °F 36.9 °F 30.1 in Calm     72 % 0 in
19:52 44.8 °F 36.3 °F 30.1 in Calm     72 % 0 in
19:57 44.6 °F 37.2 °F 30.1 in Calm     75 % 0 in
20:02 44.2 °F 36.9 °F 30.1 in Calm     75 % 0 in
20:07 44.4 °F 37.4 °F 30.1 in Calm     76 % 0 in
20:12 44.4 °F 36.7 °F 30.1 in Calm     74 % 0 in
20:17 44.4 °F 36.7 °F 30.1 in Calm     74 % 0 in
20:22 44.4 °F 37 °F 30.1 in Calm     75 % 0 in
20:27 44.4 °F 36.7 °F 30.1 in Calm     74 % 0 in
20:32 44.4 °F 37 °F 30.1 in Calm     75 % 0 in
20:37 44.4 °F 37 °F 30.1 in Calm     75 % 0 in
20:42 44.1 °F 37.6 °F 30.1 in Calm     78 % 0 in
20:47 43.7 °F 38.3 °F 30.1 in Calm     81 % 0 in
20:52 43.5 °F 37.4 °F 30.1 in Calm     79 % 0 in
20:57 44.1 °F 37.4 °F 30.1 in Calm     77 % 0 in
21:02 44.1 °F 38.3 °F 30.1 in Calm     80 % 0 in
21:07 43.3 °F 37.9 °F 30.1 in Calm     81 % 0 in
21:12 43.3 °F 37.6 °F 30.1 in Calm     80 % 0 in
21:17 43.3 °F 37.2 °F 30.1 in Calm     79 % 0 in
21:22 43.3 °F 36.9 °F 30 in ENE 2 mph   78 % 0 in
21:27 43.5 °F 37 °F 30 in ENE 1 mph 3 mph 78 % 0 in
21:32 43.5 °F 37.8 °F 30 in Calm   3 mph 80 % 0 in
21:37 43.2 °F 37.4 °F 30 in NNE 1 mph 3 mph 80 % 0 in
21:42 43.3 °F 37.2 °F 30 in Calm   1 mph 79 % 0 in
21:47 43.3 °F 36.7 °F 30 in Calm   1 mph 77 % 0 in
21:52 43.3 °F 36.7 °F 30 in Calm   1 mph 77 % 0 in
22:02 43.2 °F 37.4 °F 30 in Calm   1 mph 80 % 0 in
22:07 43 °F 37.2 °F 30 in North 1 mph 1 mph 80 % 0 in
22:12 43 °F 37.2 °F 30 in Calm   1 mph 80 % 0 in
22:17 43 °F 36.9 °F 30 in Calm   1 mph 79 % 0 in
22:22 43.2 °F 36.7 °F 30 in Calm   1 mph 78 % 0 in
22:27 43.3 °F 36.7 °F 30 in Calm   1 mph 77 % 0 in
22:32 43.3 °F 36.9 °F 30 in Calm   1 mph 78 % 0 in
22:42 43 °F 36.9 °F 30 in North 1 mph 1 mph 79 % 0 in
22:47 42.8 °F 36.7 °F 30 in NNW 1 mph 1 mph 79 % 0 in
22:52 42.6 °F 36.5 °F 30 in Calm   1 mph 79 % 0 in
22:57 43 °F 36.3 °F 30 in Calm   1 mph 77 % 0 in
23:02 43.3 °F 36.3 °F 30 in Calm   1 mph 76 % 0 in
23:07 43.3 °F 36.3 °F 30 in Calm   1 mph 76 % 0 in
23:12 43 °F 36.9 °F 30 in Calm   1 mph 79 % 0 in
23:22 42.6 °F 36.5 °F 30 in NNE 1 mph 2 mph 79 % 0 in
23:27 43 °F 36.7 °F 30 in Calm   2 mph 78 % 0 in
23:32 43 °F 36.7 °F 30 in Calm   2 mph 78 % 0 in
23:37 42.6 °F 36.3 °F 30 in Calm   2 mph 78 % 0 in
23:42 42.8 °F 36.5 °F 30 in Calm   1 mph 78 % 0 in
23:47 42.6 °F 36.9 °F 30 in WNW 1 mph 1 mph 80 % 0 in
23:52 42.4 °F 36.7 °F 30 in NW 1 mph 1 mph 80 % 0 in
23:57 42.6 °F 36.9 °F 30 in NNW 1 mph 1 mph 80 % 0 in
Meteo18
Compliments of Weather Underground - 4 mb

Script developed by  Jim McMurry - jmcmurry@mwt.net Adapted for the template by  Wim van der Kuil - Leuven-Template.eu

You find our weather info also at:

European Weather Network

Weather Underground

Equipment we use:

Weather-station
Davis Vue

Weather-program
Meteohub

Weather-server
Raspberry PI 2 B+

Provider
1 and 1

Davis Vue

Meteohub

Raspberry PI 2 B+

1 and 1